Skip Navigation LinksHome page > Weather > Current weather Skip Navigation Links

Current Weather

Eureka, Nunavut

For information only: do not use for flight planning or navigation.
Latest weather
Observation time Monday, February 8, 2016 1:00 AM CST
Local time Monday, February 8, 2016 1:53 AM CST
Flight conditions Visual Meteorological Conditions
Winds
Wind speed calm
Visibility 10 mi.
Sky condition
Ceiling unlimited
Sky clear
Temperature -36°F
Dewpoint -44°F
Altimeter 30.01 in.Hg
Derived measurements
Relative humidity 66%
Wind chill -36°F
Density altitude -7165 ft.
Sea-level pressure 30.02 in.Hg
METAR CWEU 080700Z 00000KT 10SM SKC M38/M42 A3001 RMK IC SLP165

Settings

Location code

InnerDrive.Weather 4.0.5722.1 Release CLR 4.0.30319.34209
Copyright ©2015 Inner Drive Technology. All rights reserved. Portions Copyright ©1986-2015 David Braverman.

Find weather

Site navigation


Skip Navigation Links

Place info

Page info

PayPal - The safer, easier way to pay online!

Return home.

Copyright ©2016 Inner Drive Technology. Purveyors of fine, hand-crafted computer software. Page printed 2016-02-08T07:53:16 UTC.